Terminal Aerodrome Forecast
Issued by NWS

Home | Current Version | Previous Version | Text Only | Print | Product List | Glossary On
Versions: 1 2 3 4 5 6 7 8 9 10 11 12 13 14 15 16 17 18 19 20 21 22 23 24 25 26 27 28 29 30 31 32 33 34 35 36
000
FTUS44 KLIX 241122
TAFHDC
TAF
KHDC 241122Z 2412/2512 14009KT P6SM SCT025
     FM241500 14013G23KT P6SM BKN025
     FM241700 15014G22KT P6SM BKN040
     FM250100 14013KT P6SM BKN030
     FM250300 14013G21KT P6SM OVC015
     FM250800 16011KT P6SM OVC015 PROB30 2508/2512 4SM TSRA
      OVC007CB=

USA.gov is the U.S. government's official web portal to all federal, state and local government web resources and services.